Time;durP1;ratioP1;P1;durP2;ratioP2;P2;SDS_P1;SDS_P2;PMS_P1;PMS_P2;Temp;Humidity;BMP_temperature;BMP_pressure;BME280_temperature;BME280_humidity;BME280_pressure;Samples;Min_cycle;Max_cycle;Signal;HPM_P1;HPM_P2
2022/12/01 00:02:22;;;;;;;7.80;4.25;;;;;;;-147.53;100.00;57128.34;10295981;28;20113;-86
2022/12/01 00:07:23;;;;;;;8.63;4.50;;;;;;;-147.53;100.00;57128.34;10290083;28;20531;-84
2022/12/01 00:12:25;;;;;;;10.18;5.38;;;;;;;-147.53;100.00;57128.34;10294129;28;20058;-84
2022/12/01 00:17:28;;;;;;;9.23;5.28;;;;;;;-147.53;100.00;57128.34;10300116;28;20042;-84
2022/12/01 00:22:29;;;;;;;7.63;4.50;;;;;;;-147.53;100.00;57128.34;10292410;28;20047;-85
2022/12/01 00:27:31;;;;;;;7.72;3.97;;;;;;;-147.53;100.00;57128.34;10292222;28;20097;-84
2022/12/01 00:32:32;;;;;;;6.38;4.22;;;;;;;-147.53;100.00;57128.34;10292936;28;20102;-84
2022/12/01 00:37:34;;;;;;;7.22;4.22;;;;;;;-147.53;100.00;57128.34;10299897;28;20579;-84
2022/12/01 00:42:35;;;;;;;10.45;4.65;;;;;;;-147.53;100.00;57128.34;10275891;28;20086;-84
2022/12/01 00:47:37;;;;;;;9.25;4.93;;;;;;;-147.53;100.00;57128.34;10292307;28;20039;-84
2022/12/01 00:52:39;;;;;;;8.80;4.55;;;;;;;-147.53;100.00;57128.34;10290246;28;20687;-84
2022/12/01 00:57:40;;;;;;;9.10;4.28;;;;;;;-147.53;100.00;57128.34;10272724;28;20078;-84
2022/12/01 01:02:42;;;;;;;10.63;5.70;;;;;;;-147.53;100.00;57128.34;10280417;28;20038;-85
2022/12/01 01:07:43;;;;;;;12.90;4.82;;;;;;;-147.53;100.00;57128.34;10288267;28;20046;-84
2022/12/01 01:12:45;;;;;;;11.43;4.47;;;;;;;-147.53;100.00;57128.34;10270557;28;20070;-85
2022/12/01 01:17:46;;;;;;;11.23;5.55;;;;;;;-147.53;100.00;57128.34;10286997;28;20038;-85
2022/12/01 01:22:48;;;;;;;6.25;4.40;;;;;;;-147.53;100.00;57128.34;10287263;28;20448;-84
2022/12/01 01:27:50;;;;;;;8.93;5.25;;;;;;;-147.53;100.00;57128.34;10293741;28;20625;-83
2022/12/01 01:32:51;;;;;;;6.70;4.15;;;;;;;-147.53;100.00;57128.34;10287205;28;20051;-85
2022/12/01 01:37:52;;;;;;;8.48;3.45;;;;;;;-147.53;100.00;57128.34;10288919;28;20053;-85
2022/12/01 01:42:54;;;;;;;6.30;4.15;;;;;;;-147.53;100.00;57128.34;10288474;28;20085;-84
2022/12/01 01:47:58;;;;;;;6.22;3.28;;;;;;;-147.53;100.00;57128.34;10298622;28;20038;-84
2022/12/01 01:53:05;;;;;;;5.47;3.08;;;;;;;-147.53;100.00;57128.34;10301188;28;20101;-84
2022/12/01 01:58:09;;;;;;;7.97;4.03;;;;;;;-147.53;100.00;57128.34;10287192;28;20504;-84
2022/12/01 02:03:14;;;;;;;6.18;3.72;;;;;;;-147.53;100.00;57128.34;10288318;28;20085;-84
2022/12/01 02:08:16;;;;;;;8.88;4.13;;;;;;;-147.53;100.00;57128.34;10287015;28;20047;-84
2022/12/01 02:13:35;;;;;;;8.38;3.78;;;;;;;-147.53;100.00;57128.34;10288124;28;20085;-85
2022/12/01 02:19:07;;;;;;;7.90;3.60;;;;;;;-147.53;100.00;57128.34;10288000;28;20098;-84
2022/12/01 02:24:15;;;;;;;5.00;3.53;;;;;;;-147.53;100.00;57128.34;10285474;28;20030;-84
2022/12/01 02:29:37;;;;;;;5.97;3.65;;;;;;;-147.53;100.00;57128.34;10288794;28;20726;-84
2022/12/01 02:34:58;;;;;;;4.45;2.72;;;;;;;-147.53;100.00;57128.34;10281110;28;20109;-83
2022/12/01 02:40:30;;;;;;;6.13;3.92;;;;;;;-147.53;100.00;57128.34;10286732;28;20066;-84
2022/12/01 02:45:38;;;;;;;6.07;3.65;;;;;;;-147.53;100.00;57128.34;10278572;28;20038;-84
2022/12/01 02:50:41;;;;;;;8.63;3.90;;;;;;;-147.53;100.00;57128.34;10282835;28;20401;-85
2022/12/01 02:55:50;;;;;;;10.82;5.55;;;;;;;-147.53;100.00;57128.34;10282897;28;20045;-84
2022/12/01 03:00:55;;;;;;;6.10;4.30;;;;;;;-147.53;100.00;57128.34;10266222;28;20116;-84
2022/12/01 03:06:22;;;;;;;7.82;3.45;;;;;;;-147.53;100.00;57128.34;10283088;28;20042;-84
2022/12/01 03:11:34;;;;;;;6.10;3.88;;;;;;;-147.53;100.00;57128.34;10297868;28;20047;-83
2022/12/01 03:16:50;;;;;;;7.03;4.93;;;;;;;-147.53;100.00;57128.34;10256650;28;20121;-84
2022/12/01 03:22:04;;;;;;;5.07;2.83;;;;;;;-147.53;100.00;57128.34;10287922;28;20046;-83
2022/12/01 03:27:08;;;;;;;6.82;3.58;;;;;;;-147.53;100.00;57128.34;10270943;28;20058;-84
2022/12/01 03:32:19;;;;;;;5.10;3.85;;;;;;;-147.53;100.00;57128.34;10287462;28;20094;-85
2022/12/01 03:37:52;;;;;;;5.30;2.72;;;;;;;-147.53;100.00;57128.34;10286592;28;20047;-85
2022/12/01 03:43:06;;;;;;;6.32;4.18;;;;;;;-147.53;100.00;57128.34;10280093;28;20677;-84
2022/12/01 03:48:07;;;;;;;6.63;4.60;;;;;;;-147.53;100.00;57128.34;10286894;28;20086;-84
2022/12/01 03:53:18;;;;;;;5.55;3.08;;;;;;;-147.53;100.00;57128.34;10286550;28;20038;-85
2022/12/01 03:58:26;;;;;;;7.18;3.90;;;;;;;-147.53;100.00;57128.34;10269687;28;20054;-85
2022/12/01 04:03:27;;;;;;;5.18;2.72;;;;;;;-147.53;100.00;57128.34;10287419;28;20043;-83
2022/12/01 04:08:29;;;;;;;4.13;2.33;;;;;;;-147.53;100.00;57128.34;10300363;28;20101;-86
2022/12/01 04:13:31;;;;;;;5.65;3.28;;;;;;;-147.53;100.00;57128.34;10286467;28;20053;-84
2022/12/01 04:18:33;;;;;;;4.45;2.90;;;;;;;-147.53;100.00;57128.34;10274770;28;20527;-85
2022/12/01 04:28:55;;;;;;;3.50;2.60;;;;;;;-147.53;100.00;57128.34;10264248;28;20432;-85
2022/12/01 04:33:58;;;;;;;4.63;3.05;;;;;;;-147.53;100.00;57128.34;10281911;28;20035;-84
2022/12/01 04:39:00;;;;;;;7.03;3.55;;;;;;;-147.53;100.00;57128.34;10289652;28;20335;-84
2022/12/01 04:44:01;;;;;;;3.42;2.05;;;;;;;-147.53;100.00;57128.34;10286714;28;20047;-84
2022/12/01 04:49:04;;;;;;;7.88;2.92;;;;;;;-147.53;100.00;57128.34;10271612;28;20039;-84
2022/12/01 04:54:05;;;;;;;6.68;3.83;;;;;;;-147.53;100.00;57128.34;10294985;28;20027;-84
2022/12/01 04:59:07;;;;;;;5.90;3.63;;;;;;;-147.53;100.00;57128.34;10290250;28;20047;-85
2022/12/01 05:04:12;;;;;;;4.90;2.25;;;;;;;-147.53;100.00;57128.34;10277489;28;20089;-84
2022/12/01 05:09:15;;;;;;;6.03;3.45;;;;;;;-147.53;100.00;57128.34;10292898;28;20042;-84
2022/12/01 05:14:18;;;;;;;8.25;4.25;;;;;;;-147.53;100.00;57128.34;10291920;28;20074;-84
2022/12/01 05:24:47;;;;;;;7.72;3.05;;;;;;;-147.53;100.00;57128.34;10284833;28;20397;-83
2022/12/01 05:29:49;;;;;;;4.47;2.20;;;;;;;-147.53;100.00;57128.34;10276529;28;20067;-84
2022/12/01 05:34:51;;;;;;;5.68;3.35;;;;;;;-147.53;100.00;57128.34;10293406;28;20042;-84
2022/12/01 05:39:52;;;;;;;3.58;2.05;;;;;;;-147.53;100.00;57128.34;10290301;28;20568;-84
2022/12/01 05:44:54;;;;;;;12.27;3.50;;;;;;;-147.53;100.00;57128.34;10289404;28;20085;-84
2022/12/01 05:49:55;;;;;;;3.17;1.48;;;;;;;-147.53;100.00;57128.34;10271712;28;20286;-83
2022/12/01 05:55:04;;;;;;;4.57;3.08;;;;;;;-147.53;100.00;57128.34;10292147;28;20118;-84
2022/12/01 06:00:06;;;;;;;8.65;3.70;;;;;;;-147.53;100.00;57128.34;10273650;28;20054;-84
2022/12/01 06:05:14;;;;;;;9.25;3.90;;;;;;;-147.53;100.00;57128.34;10300725;28;20058;-83
2022/12/01 06:10:15;;;;;;;6.82;4.43;;;;;;;-147.53;100.00;57128.34;10272365;28;20066;-85
2022/12/01 06:15:17;;;;;;;15.00;5.40;;;;;;;-147.53;100.00;57128.34;10275942;28;20053;-85
2022/12/01 06:20:18;;;;;;;4.63;3.00;;;;;;;-147.53;100.00;57128.34;10285439;28;20047;-84
2022/12/01 06:25:21;;;;;;;10.98;5.85;;;;;;;-147.53;100.00;57128.34;10285728;28;20055;-84
2022/12/01 06:30:23;;;;;;;9.02;4.45;;;;;;;-147.53;100.00;57128.34;10289910;28;20592;-84
2022/12/01 06:35:24;;;;;;;8.85;4.40;;;;;;;-147.53;100.00;57128.34;10270584;28;20058;-83
2022/12/01 06:40:26;;;;;;;7.15;3.63;;;;;;;-147.53;100.00;57128.34;10291220;28;20456;-83
2022/12/01 06:45:29;;;;;;;8.02;4.88;;;;;;;-147.53;100.00;57128.34;10297585;28;20047;-81
2022/12/01 06:50:30;;;;;;;9.55;5.07;;;;;;;-147.53;100.00;57128.34;10287862;28;20500;-82
2022/12/01 06:55:32;;;;;;;7.38;4.30;;;;;;;-147.53;100.00;57128.34;10296233;28;20077;-82
2022/12/01 07:00:34;;;;;;;6.50;3.65;;;;;;;-147.53;100.00;57128.34;10289530;28;20131;-82
2022/12/01 07:05:35;;;;;;;7.22;2.75;;;;;;;-147.53;100.00;57128.34;10295041;28;20085;-82
2022/12/01 07:10:37;;;;;;;7.55;3.67;;;;;;;-147.53;100.00;57128.34;10286467;28;20613;-82
2022/12/01 07:15:38;;;;;;;9.07;5.57;;;;;;;-147.53;100.00;57128.34;10294304;28;20118;-83
2022/12/01 07:20:40;;;;;;;5.68;3.20;;;;;;;-147.53;100.00;57128.34;10289022;28;20093;-82
2022/12/01 07:25:41;;;;;;;12.43;4.60;;;;;;;-147.53;100.00;57128.34;10292702;28;20464;-83
2022/12/01 07:30:42;;;;;;;6.80;4.50;;;;;;;-147.53;100.00;57128.34;10320713;28;20046;-82
2022/12/01 07:35:44;;;;;;;11.55;4.07;;;;;;;-147.53;100.00;57128.34;10297265;28;20043;-83
2022/12/01 07:40:45;;;;;;;11.68;6.38;;;;;;;-147.53;100.00;57128.34;10289890;28;20129;-81
2022/12/01 07:45:48;;;;;;;8.90;4.15;;;;;;;-147.53;100.00;57128.34;10274534;28;20054;-82
2022/12/01 07:50:49;;;;;;;9.30;4.97;;;;;;;-147.53;100.00;57128.34;10306149;28;20042;-83
2022/12/01 07:55:51;;;;;;;7.47;4.78;;;;;;;-147.53;100.00;57128.34;10290883;28;20555;-84
2022/12/01 08:00:53;;;;;;;8.07;5.68;;;;;;;-147.53;100.00;57128.34;10271595;28;20047;-85
2022/12/01 08:05:59;;;;;;;7.95;3.80;;;;;;;-147.53;100.00;57128.34;10293518;28;20046;-84
2022/12/01 08:11:02;;;;;;;9.77;6.00;;;;;;;-147.53;100.00;57128.34;10290695;28;20047;-85
2022/12/01 08:16:05;;;;;;;8.90;4.32;;;;;;;-147.53;100.00;57128.34;10291625;28;20063;-85
2022/12/01 08:21:11;;;;;;;9.90;5.10;;;;;;;-147.53;100.00;57128.34;10293753;28;20467;-84
2022/12/01 08:26:17;;;;;;;11.07;6.28;;;;;;;-147.53;100.00;57128.34;10277146;28;20042;-84
2022/12/01 08:31:25;;;;;;;11.50;7.13;;;;;;;-147.53;100.00;57128.34;10298832;28;20054;-85
2022/12/01 08:36:26;;;;;;;10.20;5.75;;;;;;;-147.53;100.00;57128.34;10280644;28;20047;-85
2022/12/01 08:41:28;;;;;;;10.48;3.63;;;;;;;-147.53;100.00;57128.34;10299050;28;20050;-84
2022/12/01 08:46:34;;;;;;;14.63;4.82;;;;;;;-147.53;100.00;57128.34;10303994;28;20393;-85
2022/12/01 08:51:36;;;;;;;12.77;6.53;;;;;;;-147.53;100.00;57128.34;10289801;28;20046;-85
2022/12/01 08:56:41;;;;;;;11.43;6.68;;;;;;;-147.53;100.00;57128.34;10278291;28;20039;-83
2022/12/01 09:01:51;;;;;;;9.10;5.78;;;;;;;-147.53;100.00;57128.34;10302728;28;20073;-85
2022/12/01 09:06:55;;;;;;;8.95;5.15;;;;;;;-147.53;100.00;57128.34;10310615;28;20043;-85
2022/12/01 09:11:56;;;;;;;10.18;6.10;;;;;;;-147.53;100.00;57128.34;10313086;28;20077;-82
2022/12/01 09:16:58;;;;;;;7.18;4.15;;;;;;;-147.53;100.00;57128.34;10311418;28;20039;-84
2022/12/01 09:21:59;;;;;;;7.78;5.13;;;;;;;-147.53;100.00;57128.34;10303132;28;20669;-84
2022/12/01 09:27:02;;;;;;;13.35;6.53;;;;;;;-147.53;100.00;57128.34;10285253;28;20117;-84
2022/12/01 09:32:04;;;;;;;9.00;6.18;;;;;;;-147.53;100.00;57128.34;10297284;28;20049;-84
2022/12/01 09:37:06;;;;;;;12.95;5.88;;;;;;;-147.53;100.00;57128.34;10298624;28;20042;-85
2022/12/01 09:42:14;;;;;;;10.90;5.22;;;;;;;-147.53;100.00;57128.34;10296712;28;20061;-84
2022/12/01 09:47:33;;;;;;;12.52;6.30;;;;;;;-147.53;100.00;57128.34;10293727;28;20122;-85
2022/12/01 09:52:43;;;;;;;11.13;5.88;;;;;;;-147.53;100.00;57128.34;10301626;28;20047;-85
2022/12/01 09:57:47;;;;;;;9.85;5.80;;;;;;;-147.53;100.00;57128.34;10279214;28;20077;-85
2022/12/01 10:03:08;;;;;;;10.80;5.57;;;;;;;-147.53;100.00;57128.34;10294286;28;20070;-85
2022/12/01 10:08:15;;;;;;;10.85;7.32;;;;;;;-147.53;100.00;57128.34;10290781;28;20561;-84
2022/12/01 10:13:18;;;;;;;6.82;3.90;;;;;;;-147.53;100.00;57128.34;10288594;28;20047;-84
2022/12/01 10:18:45;;;;;;;16.58;6.65;;;;;;;-147.53;100.00;57128.34;10263477;28;20035;-84
2022/12/01 10:23:58;;;;;;;12.13;7.00;;;;;;;-147.53;100.00;57128.34;10291515;28;20038;-84
2022/12/01 10:29:21;;;;;;;9.68;4.57;;;;;;;-147.53;100.00;57128.34;10305587;28;20035;-84
2022/12/01 10:34:27;;;;;;;15.43;6.95;;;;;;;-147.53;100.00;57128.34;10302721;28;20106;-84
2022/12/01 10:39:36;;;;;;;10.05;5.10;;;;;;;-147.53;100.00;57128.34;10305485;28;20066;-84
2022/12/01 10:44:39;;;;;;;10.65;6.43;;;;;;;-147.53;100.00;57128.34;10299845;28;20504;-85
2022/12/01 10:49:40;;;;;;;11.70;6.60;;;;;;;-147.53;100.00;57128.34;10282116;28;20053;-84
2022/12/01 10:54:42;;;;;;;9.27;5.45;;;;;;;-147.53;100.00;57128.34;10303847;28;20047;-84
2022/12/01 10:59:55;;;;;;;11.30;5.65;;;;;;;-147.53;100.00;57128.34;10289810;28;20660;-84
2022/12/01 11:05:04;;;;;;;9.95;6.88;;;;;;;-147.53;100.00;57128.34;10281431;28;20039;-84
2022/12/01 11:10:18;;;;;;;13.15;7.28;;;;;;;-147.53;100.00;57128.34;10297871;28;20452;-84
2022/12/01 11:15:24;;;;;;;9.93;5.45;;;;;;;-147.53;100.00;57128.34;10290665;28;20595;-84
2022/12/01 11:20:39;;;;;;;12.43;5.93;;;;;;;-147.53;100.00;57128.34;10302853;28;20055;-83
2022/12/01 11:25:41;;;;;;;10.15;5.40;;;;;;;-147.53;100.00;57128.34;10250729;28;20042;-83
2022/12/01 11:30:42;;;;;;;15.80;9.13;;;;;;;-147.53;100.00;57128.34;10266298;28;20031;-84
2022/12/01 11:35:47;;;;;;;11.63;6.85;;;;;;;-147.53;100.00;57128.34;10283046;28;20046;-86
2022/12/01 11:40:52;;;;;;;12.25;6.30;;;;;;;-147.53;100.00;57128.34;10291278;28;20039;-85
2022/12/01 11:45:57;;;;;;;13.85;8.00;;;;;;;-147.53;100.00;57128.34;10281587;28;20050;-83
2022/12/01 11:51:23;;;;;;;15.05;7.53;;;;;;;-147.53;100.00;57128.34;10297487;28;20046;-84
2022/12/01 11:56:28;;;;;;;16.00;8.55;;;;;;;-147.53;100.00;57128.34;10266412;28;20046;-84
2022/12/01 12:01:42;;;;;;;13.13;6.80;;;;;;;-147.53;100.00;57128.34;10281289;28;20098;-84
2022/12/01 12:06:49;;;;;;;14.52;7.90;;;;;;;-147.53;100.00;57128.34;10273602;28;20055;-84
2022/12/01 12:12:28;;;;;;;13.88;7.93;;;;;;;-147.53;100.00;57128.34;10282069;28;20043;-84
2022/12/01 12:17:48;;;;;;;11.30;6.63;;;;;;;-147.53;100.00;57128.34;10273664;28;20452;-84
2022/12/01 12:23:08;;;;;;;10.17;5.27;;;;;;;-147.53;100.00;57128.34;10264527;28;20034;-85
2022/12/01 12:28:10;;;;;;;13.70;7.10;;;;;;;-147.53;100.00;57128.34;10279914;28;20097;-84
2022/12/01 12:33:35;;;;;;;11.88;7.10;;;;;;;-147.53;100.00;57128.34;10280508;28;20497;-84
2022/12/01 12:38:44;;;;;;;10.50;7.32;;;;;;;-147.53;100.00;57128.34;10275020;28;20062;-84
2022/12/01 12:43:57;;;;;;;14.48;9.32;;;;;;;-147.53;100.00;57128.34;10272838;28;20077;-84
2022/12/01 12:49:36;;;;;;;17.05;7.85;;;;;;;-147.53;100.00;57128.34;10280384;28;20451;-83
2022/12/01 12:54:53;;;;;;;11.32;7.88;;;;;;;-147.53;100.00;57128.34;10285379;28;20046;-82
2022/12/01 13:00:05;;;;;;;12.25;6.75;;;;;;;-147.53;100.00;57128.34;10294521;28;20042;-83
2022/12/01 13:05:23;;;;;;;13.57;8.30;;;;;;;-147.53;100.00;57128.34;10289398;28;20038;-83
2022/12/01 13:10:51;;;;;;;10.70;4.40;;;;;;;-147.53;100.00;57128.34;10282601;28;20074;-83
2022/12/01 13:15:55;;;;;;;15.30;7.25;;;;;;;-147.53;100.00;57128.34;10291740;28;20039;-83
2022/12/01 13:20:57;;;;;;;12.02;6.85;;;;;;;-147.53;100.00;57128.34;10289495;28;20086;-82
2022/12/01 13:26:04;;;;;;;13.73;6.63;;;;;;;-147.53;100.00;57128.34;10296876;28;20042;-82
2022/12/01 13:31:15;;;;;;;12.30;7.10;;;;;;;-147.53;100.00;57128.34;10320188;28;20065;-82
2022/12/01 13:36:17;;;;;;;8.90;5.10;;;;;;;-147.53;100.00;57128.34;10314211;28;20394;-83
2022/12/01 13:41:41;;;;;;;12.85;5.88;;;;;;;-147.53;100.00;57128.34;10307393;28;20043;-83
2022/12/01 13:46:43;;;;;;;20.30;6.57;;;;;;;-147.53;100.00;57128.34;10303090;28;20050;-84
2022/12/01 13:52:16;;;;;;;7.63;5.00;;;;;;;-147.53;100.00;57128.34;10307993;28;20050;-84
2022/12/01 13:57:26;;;;;;;9.73;4.50;;;;;;;-147.53;100.00;57128.34;10302123;28;20047;-84
2022/12/01 14:02:34;;;;;;;6.90;4.35;;;;;;;-147.53;100.00;57128.34;10305296;28;20088;-84
2022/12/01 14:07:37;;;;;;;13.18;7.07;;;;;;;-147.53;100.00;57128.34;10281063;28;20157;-84
2022/12/01 14:12:44;;;;;;;8.02;4.80;;;;;;;-147.53;100.00;57128.34;10273410;28;20057;-84
2022/12/01 14:17:46;;;;;;;8.50;3.63;;;;;;;-147.53;100.00;57128.34;10290057;28;20050;-84
2022/12/01 14:23:03;;;;;;;12.18;6.40;;;;;;;-147.53;100.00;57128.34;10282150;28;20382;-84
2022/12/01 14:28:16;;;;;;;10.55;5.28;;;;;;;-147.53;100.00;57128.34;10286248;28;20144;-83
2022/12/01 14:33:47;;;;;;;11.88;6.68;;;;;;;-147.53;100.00;57128.34;10265833;28;20053;-84
2022/12/01 14:38:52;;;;;;;8.48;4.13;;;;;;;-147.53;100.00;57128.34;10280358;28;20043;-85
2022/12/01 14:44:04;;;;;;;14.57;6.28;;;;;;;-147.53;100.00;57128.34;10287678;28;20069;-85
2022/12/01 14:49:12;;;;;;;9.27;5.63;;;;;;;-147.53;100.00;57128.34;10293037;28;20035;-84
2022/12/01 14:54:21;;;;;;;10.85;5.05;;;;;;;-147.53;100.00;57128.34;10267622;28;20472;-85
2022/12/01 14:59:25;;;;;;;10.88;4.97;;;;;;;-147.53;100.00;57128.34;10287911;28;20040;-85
2022/12/01 15:04:27;;;;;;;7.15;4.45;;;;;;;-147.53;100.00;57128.34;10296958;28;20030;-84
2022/12/01 15:09:28;;;;;;;10.25;4.90;;;;;;;-147.53;100.00;57128.34;10299504;28;20081;-85
2022/12/01 15:14:44;;;;;;;8.45;4.80;;;;;;;-147.53;100.00;57128.34;10275347;28;20043;-83
2022/12/01 15:19:46;;;;;;;8.98;5.18;;;;;;;-147.53;100.00;57128.34;10282550;28;20512;-84
2022/12/01 15:24:48;;;;;;;12.15;6.40;;;;;;;-147.53;100.00;57128.34;10266273;28;20054;-84
2022/12/01 15:29:50;;;;;;;10.85;6.20;;;;;;;-147.53;100.00;57128.34;10299730;28;20078;-84
2022/12/01 15:34:54;;;;;;;10.77;7.03;;;;;;;-147.53;100.00;57128.34;10302524;28;20063;-84
2022/12/01 15:40:04;;;;;;;12.75;6.65;;;;;;;-147.53;100.00;57128.34;10306075;28;20066;-84
2022/12/01 15:45:26;;;;;;;9.40;4.60;;;;;;;-147.53;100.00;57128.34;10282801;28;20049;-84
2022/12/01 15:50:29;;;;;;;8.75;4.25;;;;;;;-147.53;100.00;57128.34;10301215;28;20078;-84
2022/12/01 15:55:34;;;;;;;9.30;5.43;;;;;;;-147.53;100.00;57128.34;10269500;28;20053;-84
2022/12/01 16:00:36;;;;;;;9.82;5.07;;;;;;;-147.53;100.00;57128.34;10297561;28;20406;-85
2022/12/01 16:05:43;;;;;;;9.10;5.43;;;;;;;-147.53;100.00;57128.34;10289126;28;20440;-85
2022/12/01 16:10:44;;;;;;;10.15;4.93;;;;;;;-147.53;100.00;57128.34;10287898;28;20038;-85
2022/12/01 16:15:46;;;;;;;10.25;5.60;;;;;;;-147.53;100.00;57128.34;10309153;28;20058;-84
2022/12/01 16:20:48;;;;;;;8.93;5.45;;;;;;;-147.53;100.00;57128.34;10280933;28;20034;-85
2022/12/01 16:25:50;;;;;;;10.43;5.55;;;;;;;-147.53;100.00;57128.34;10275819;28;20056;-85
2022/12/01 16:30:52;;;;;;;14.15;8.80;;;;;;;-147.53;100.00;57128.34;10292242;28;20051;-86
2022/12/01 16:35:58;;;;;;;11.25;6.25;;;;;;;-147.53;100.00;57128.34;10289374;28;20587;-86
2022/12/01 16:41:01;;;;;;;12.52;5.75;;;;;;;-147.53;100.00;57128.34;10285138;28;20047;-86
2022/12/01 16:46:08;;;;;;;17.02;7.05;;;;;;;-147.53;100.00;57128.34;10288582;28;20039;-86
2022/12/01 16:51:12;;;;;;;8.75;4.45;;;;;;;-147.53;100.00;57128.34;10295911;28;20050;-85
2022/12/01 16:56:15;;;;;;;5.25;3.33;;;;;;;-147.53;100.00;57128.34;10298417;28;20049;-85
2022/12/01 17:01:16;;;;;;;9.73;5.05;;;;;;;-147.53;100.00;57128.34;10293410;28;20097;-84
2022/12/01 17:06:19;;;;;;;5.93;3.83;;;;;;;-147.53;100.00;57128.34;10302495;28;20596;-86
2022/12/01 17:11:21;;;;;;;8.73;5.43;;;;;;;-147.53;100.00;57128.34;10309140;28;20476;-84
2022/12/01 17:16:22;;;;;;;4.93;3.40;;;;;;;-147.53;100.00;57128.34;10294667;28;20070;-84
2022/12/01 17:21:24;;;;;;;3.97;2.15;;;;;;;-147.53;100.00;57128.34;10288470;28;20062;-84
2022/12/01 17:26:25;;;;;;;5.38;2.70;;;;;;;-147.53;100.00;57128.34;10289601;28;20066;-84
2022/12/01 17:31:27;;;;;;;4.88;3.38;;;;;;;-147.53;100.00;57128.34;10296465;28;20405;-84
2022/12/01 17:36:28;;;;;;;9.32;4.53;;;;;;;-147.53;100.00;57128.34;10294926;28;20062;-85
2022/12/01 17:41:34;;;;;;;6.85;4.47;;;;;;;-147.53;100.00;57128.34;10301116;28;20096;-84
2022/12/01 17:46:37;;;;;;;5.57;3.35;;;;;;;-147.53;100.00;57128.34;10299006;28;20054;-84
2022/12/01 17:51:39;;;;;;;7.40;4.03;;;;;;;-147.53;100.00;57128.34;10298598;28;20039;-85
2022/12/01 17:56:41;;;;;;;5.38;3.47;;;;;;;-147.53;100.00;57128.34;10268656;28;20047;-85
2022/12/01 18:01:43;;;;;;;5.32;3.72;;;;;;;-147.53;100.00;57128.34;10262173;28;20043;-84
2022/12/01 18:06:44;;;;;;;5.65;2.83;;;;;;;-147.53;100.00;57128.34;10293988;28;20053;-84
2022/12/01 18:11:55;;;;;;;7.47;4.17;;;;;;;-147.53;100.00;57128.34;10302728;28;20058;-85
2022/12/01 18:16:56;;;;;;;8.52;4.68;;;;;;;-147.53;100.00;57128.34;10278715;28;20086;-84
2022/12/01 18:21:58;;;;;;;4.10;2.78;;;;;;;-147.53;100.00;57128.34;10291217;28;20047;-85
2022/12/01 18:27:00;;;;;;;9.80;3.55;;;;;;;-147.53;100.00;57128.34;10271469;28;20043;-85
2022/12/01 18:32:01;;;;;;;10.85;3.55;;;;;;;-147.53;100.00;57128.34;10268381;28;20057;-85
2022/12/01 18:37:04;;;;;;;6.35;4.00;;;;;;;-147.53;100.00;57128.34;10283187;28;20421;-85
2022/12/01 18:42:06;;;;;;;5.47;3.75;;;;;;;-147.53;100.00;57128.34;10255389;28;20042;-86
2022/12/01 18:47:08;;;;;;;7.63;3.90;;;;;;;-147.53;100.00;57128.34;10284837;28;20098;-84
2022/12/01 18:52:09;;;;;;;9.30;4.00;;;;;;;-147.53;100.00;57128.34;10285243;28;20444;-84
2022/12/01 18:57:11;;;;;;;5.90;4.25;;;;;;;-147.53;100.00;57128.34;10268420;28;20058;-86
2022/12/01 19:02:12;;;;;;;7.60;4.03;;;;;;;-147.53;100.00;57128.34;10285325;28;20129;-84
2022/12/01 19:07:14;;;;;;;9.38;6.05;;;;;;;-147.53;100.00;57128.34;10286375;28;20047;-84
2022/12/01 19:12:16;;;;;;;8.55;4.18;;;;;;;-147.53;100.00;57128.34;10266525;28;20046;-85
2022/12/01 19:17:17;;;;;;;3.45;2.25;;;;;;;-147.53;100.00;57128.34;10293878;28;20063;-86
2022/12/01 19:22:19;;;;;;;5.32;3.13;;;;;;;-147.53;100.00;57128.34;10266339;28;20050;-84
2022/12/01 19:27:20;;;;;;;4.97;2.72;;;;;;;-147.53;100.00;57128.34;10271772;28;20035;-84
2022/12/01 19:32:23;;;;;;;2.63;1.75;;;;;;;-147.53;100.00;57128.34;10308337;28;20061;-84
2022/12/01 19:37:24;;;;;;;7.63;4.32;;;;;;;-147.53;100.00;57128.34;10267023;28;20531;-85
2022/12/01 19:42:26;;;;;;;5.88;2.58;;;;;;;-147.53;100.00;57128.34;10283540;28;20039;-84
2022/12/01 19:47:31;;;;;;;8.95;3.92;;;;;;;-147.53;100.00;57128.34;10263813;28;20047;-85
2022/12/01 19:52:35;;;;;;;3.00;2.00;;;;;;;-147.53;100.00;57128.34;10278740;28;20047;-84
2022/12/01 19:57:37;;;;;;;3.85;2.58;;;;;;;-147.53;100.00;57128.34;10280568;28;20047;-84
2022/12/01 20:02:38;;;;;;;13.60;2.78;;;;;;;-147.53;100.00;57128.34;10283796;28;20582;-86
2022/12/01 20:07:40;;;;;;;1.33;1.23;;;;;;;-147.53;100.00;57128.34;10284818;28;20047;-85
2022/12/01 20:12:42;;;;;;;4.68;2.28;;;;;;;-147.53;100.00;57128.34;10299271;28;20070;-85
2022/12/01 20:17:43;;;;;;;3.78;2.50;;;;;;;-147.53;100.00;57128.34;10312240;28;20460;-85
2022/12/01 20:22:45;;;;;;;1.58;1.40;;;;;;;-147.53;100.00;57128.34;10288999;28;20042;-84
2022/12/01 20:27:46;;;;;;;13.32;5.90;;;;;;;-147.53;100.00;57128.34;10291959;28;20038;-84
2022/12/01 20:32:48;;;;;;;9.65;7.03;;;;;;;-147.53;100.00;57128.34;10291410;28;20043;-84
2022/12/01 20:37:49;;;;;;;8.35;4.53;;;;;;;-147.53;100.00;57128.34;10258015;28;20508;-84
2022/12/01 20:42:51;;;;;;;7.32;4.82;;;;;;;-147.53;100.00;57128.34;10274827;28;20522;-85
2022/12/01 20:47:52;;;;;;;2.58;1.83;;;;;;;-147.53;100.00;57128.34;10267101;28;20041;-86
2022/12/01 20:52:54;;;;;;;3.03;1.92;;;;;;;-147.53;100.00;57128.34;10281036;28;20058;-85
2022/12/01 20:57:56;;;;;;;6.40;3.58;;;;;;;-147.53;100.00;57128.34;10291096;28;20034;-85
2022/12/01 21:02:57;;;;;;;5.03;2.65;;;;;;;-147.53;100.00;57128.34;10294960;28;20078;-84
2022/12/01 21:08:00;;;;;;;3.97;2.58;;;;;;;-147.53;100.00;57128.34;10270174;28;20072;-85
2022/12/01 21:18:58;;;;;;;5.20;2.88;;;;;;;-147.53;100.00;57128.34;10283710;28;20400;-84
2022/12/01 21:24:00;;;;;;;4.82;2.47;;;;;;;-147.53;100.00;57128.34;10286218;28;20039;-85
2022/12/01 21:29:23;;;;;;;3.17;2.03;;;;;;;-147.53;100.00;57128.34;10208513;28;1119245;-85
2022/12/01 21:34:27;;;;;;;4.65;2.03;;;;;;;-147.53;100.00;57128.34;10286336;28;20030;-84
2022/12/01 21:39:29;;;;;;;3.53;2.78;;;;;;;-147.53;100.00;57128.34;10287146;28;20115;-85
2022/12/01 21:44:35;;;;;;;3.05;1.73;;;;;;;-147.53;100.00;57128.34;10286871;28;20038;-84
2022/12/01 21:49:38;;;;;;;5.00;2.65;;;;;;;-147.53;100.00;57128.34;10285198;28;20051;-85
2022/12/01 21:54:40;;;;;;;1.60;1.35;;;;;;;-147.53;100.00;57128.34;10288965;28;20050;-85
2022/12/01 21:59:41;;;;;;;2.40;2.17;;;;;;;-147.53;100.00;57128.34;10285545;28;20031;-85
2022/12/01 22:04:44;;;;;;;1.58;1.25;;;;;;;-147.53;100.00;57128.34;10273958;28;20062;-85
2022/12/01 22:10:21;;;;;;;3.67;1.90;;;;;;;-147.53;100.00;57128.34;10295180;28;20047;-84
2022/12/01 22:15:40;;;;;;;3.10;1.27;;;;;;;-147.53;100.00;57128.34;10273085;28;20050;-85
2022/12/01 22:20:42;;;;;;;0.65;0.63;;;;;;;-147.53;100.00;57128.34;10271563;28;20031;-84
2022/12/01 22:25:45;;;;;;;2.58;1.55;;;;;;;-147.53;100.00;57128.34;10271668;28;20050;-84
2022/12/01 22:30:47;;;;;;;3.30;1.80;;;;;;;-147.53;100.00;57128.34;10286379;28;20042;-86
2022/12/01 22:35:51;;;;;;;2.92;2.15;;;;;;;-147.53;100.00;57128.34;10287859;28;20671;-85
2022/12/01 22:41:06;;;;;;;3.25;2.05;;;;;;;-147.53;100.00;57128.34;10271394;28;20055;-84
2022/12/01 22:46:20;;;;;;;3.08;1.90;;;;;;;-147.53;100.00;57128.34;10270211;28;20078;-85
2022/12/01 22:51:30;;;;;;;1.63;1.13;;;;;;;-147.53;100.00;57128.34;10285683;28;20101;-86
2022/12/01 22:56:38;;;;;;;4.13;2.17;;;;;;;-147.53;100.00;57128.34;10285410;28;20039;-85
2022/12/01 23:01:50;;;;;;;5.30;2.05;;;;;;;-147.53;100.00;57128.34;10270999;28;20043;-85
2022/12/01 23:07:21;;;;;;;7.45;3.05;;;;;;;-147.53;100.00;57128.34;10287492;28;20052;-84